Paulo Alfonso, Paulo Afonso Airport (SBUF)

NamePaulo Afonso Airport
CityPaulo Alfonso
CountryBrazil
ICAOSBUF
IATAPAV
Altitude269 m
CoordinatesGoogle Map
Live Air TrafficLiveATC.net
METARSBUF 301800Z 09010KT 9999 FEW023 36/05 Q1010
2019-10-30 18:00:00 Wind: East (90°) 5.14 m/s - Visibility: > 10000 m - Temperature: 36 °C - Dew point: 5 °C - Humidity: 14.5% - Pressure: 1010 hPa
Statistics

The table below shows the detailed information of all flights to/from Paulo Alfonso, Paulo Afonso Airport (SBUF).